Time;durP1;ratioP1;P1;durP2;ratioP2;P2;SDS_P1;SDS_P2;PMS_P1;PMS_P2;Temp;Humidity;BMP_temperature;BMP_pressure;BME280_temperature;BME280_humidity;BME280_pressure;Samples;Min_cycle;Max_cycle;Signal;HPM_P1;HPM_P2
2022/02/21 00:02:01;;;;;;;0.33;0.33;;;;;;;;;;1888377;76;26284;-49
2022/02/21 00:04:29;;;;;;;0.20;0.20;;;;;;;;;;1889142;75;26814;-45
2022/02/21 00:06:56;;;;;;;0.30;0.30;;;;;;;;;;1892530;75;26688;-47
2022/02/21 00:09:23;;;;;;;0.30;0.30;;;;;;;;;;1880862;76;26708;-47
2022/02/21 00:11:50;;;;;;;0.25;0.25;;;;;;;;;;1887367;76;27468;-47
2022/02/21 00:14:18;;;;;;;0.53;0.30;;;;;;;;;;1876977;76;26521;-49
2022/02/21 00:16:45;;;;;;;0.40;0.40;;;;;;;;;;1887561;76;26232;-47
2022/02/21 00:19:12;;;;;;;0.23;0.23;;;;;;;;;;1889231;76;26334;-50
2022/02/21 00:21:40;;;;;;;0.20;0.20;;;;;;;;;;1887970;76;26261;-46
2022/02/21 00:24:07;;;;;;;0.30;0.30;;;;;;;;;;1889466;76;27585;-50
2022/02/21 00:26:35;;;;;;;0.50;0.50;;;;;;;;;;1889679;76;26242;-48
2022/02/21 00:29:02;;;;;;;0.20;0.20;;;;;;;;;;1872931;76;26233;-46
2022/02/21 00:31:29;;;;;;;0.40;0.40;;;;;;;;;;1888320;76;26809;-45
2022/02/21 00:33:56;;;;;;;0.20;0.20;;;;;;;;;;1889539;76;26626;-45
2022/02/21 00:36:24;;;;;;;0.23;0.23;;;;;;;;;;1879865;76;26708;-46
2022/02/21 00:38:51;;;;;;;0.30;0.30;;;;;;;;;;1881648;76;26206;-49
2022/02/21 00:41:18;;;;;;;0.40;0.40;;;;;;;;;;1889585;76;26547;-47
2022/02/21 00:43:45;;;;;;;0.42;0.40;;;;;;;;;;1888995;76;26189;-45
2022/02/21 00:46:13;;;;;;;0.28;0.25;;;;;;;;;;1889610;76;26249;-46
2022/02/21 00:48:40;;;;;;;0.40;0.25;;;;;;;;;;1889468;76;26257;-46
2022/02/21 00:51:07;;;;;;;0.40;0.40;;;;;;;;;;1886318;74;26579;-45
2022/02/21 00:53:35;;;;;;;0.10;0.10;;;;;;;;;;1876406;76;26320;-49
2022/02/21 00:56:02;;;;;;;0.28;0.28;;;;;;;;;;1889006;76;26292;-46
2022/02/21 00:58:29;;;;;;;1.42;0.30;;;;;;;;;;1887260;76;26826;-48
2022/02/21 01:00:56;;;;;;;0.40;0.40;;;;;;;;;;1881863;76;26257;-45
2022/02/21 01:03:24;;;;;;;1.35;0.42;;;;;;;;;;1889086;76;26261;-45
2022/02/21 01:05:51;;;;;;;0.30;0.30;;;;;;;;;;1878644;75;26190;-47
2022/02/21 01:08:18;;;;;;;0.15;0.15;;;;;;;;;;1870340;76;26709;-48
2022/02/21 01:10:46;;;;;;;0.30;0.30;;;;;;;;;;1881068;76;26685;-50
2022/02/21 01:13:13;;;;;;;0.40;0.40;;;;;;;;;;1875780;76;26241;-45
2022/02/21 01:15:40;;;;;;;1.52;0.28;;;;;;;;;;1880008;76;26261;-46
2022/02/21 01:18:08;;;;;;;0.20;0.20;;;;;;;;;;1879877;75;26201;-47
2022/02/21 01:20:35;;;;;;;0.20;0.20;;;;;;;;;;1877645;76;26276;-46
2022/02/21 01:23:02;;;;;;;0.23;0.23;;;;;;;;;;1864686;76;26257;-48
2022/02/21 01:25:30;;;;;;;0.30;0.30;;;;;;;;;;1879182;76;26273;-49
2022/02/21 01:27:57;;;;;;;0.70;0.40;;;;;;;;;;1864195;76;26347;-46
2022/02/21 01:30:24;;;;;;;1.82;0.40;;;;;;;;;;1879628;76;26420;-46
2022/02/21 01:32:51;;;;;;;0.47;0.47;;;;;;;;;;1872681;76;26223;-47
2022/02/21 01:35:19;;;;;;;0.30;0.30;;;;;;;;;;1869227;75;26198;-46
2022/02/21 01:37:46;;;;;;;0.30;0.30;;;;;;;;;;1859519;76;26281;-46
2022/02/21 01:40:15;;;;;;;0.88;0.40;;;;;;;;;;1880335;75;26322;-47
2022/02/21 01:42:43;;;;;;;0.40;0.35;;;;;;;;;;1880041;76;26679;-48
2022/02/21 01:45:10;;;;;;;0.50;0.50;;;;;;;;;;1877068;76;26346;-50
2022/02/21 01:47:37;;;;;;;0.30;0.30;;;;;;;;;;1876332;76;26610;-48
2022/02/21 01:50:05;;;;;;;0.40;0.40;;;;;;;;;;1866718;76;26237;-49
2022/02/21 01:52:33;;;;;;;1.55;0.45;;;;;;;;;;1867940;76;26716;-48
2022/02/21 01:55:00;;;;;;;0.33;0.33;;;;;;;;;;1873943;76;26238;-48
2022/02/21 01:57:28;;;;;;;0.30;0.30;;;;;;;;;;1864083;76;26335;-46
2022/02/21 01:59:55;;;;;;;0.30;0.30;;;;;;;;;;1880076;76;26676;-46
2022/02/21 02:02:23;;;;;;;0.60;0.60;;;;;;;;;;1880185;76;26240;-51
2022/02/21 02:04:50;;;;;;;1.55;0.37;;;;;;;;;;1879023;76;26783;-47
2022/02/21 02:07:18;;;;;;;0.37;0.37;;;;;;;;;;1873905;76;26206;-45
2022/02/21 02:09:45;;;;;;;0.30;0.30;;;;;;;;;;1877163;76;26385;-46
2022/02/21 02:12:12;;;;;;;0.30;0.30;;;;;;;;;;1881281;76;26265;-46
2022/02/21 02:14:41;;;;;;;0.33;0.33;;;;;;;;;;1888408;76;26334;-49
2022/02/21 02:17:12;;;;;;;0.30;0.30;;;;;;;;;;1889396;76;26253;-46
2022/02/21 02:19:40;;;;;;;0.55;0.30;;;;;;;;;;1889274;76;26248;-47
2022/02/21 02:22:14;;;;;;;0.30;0.30;;;;;;;;;;1887542;76;26701;-45
2022/02/21 02:24:43;;;;;;;0.30;0.30;;;;;;;;;;1888600;76;26249;-47
2022/02/21 02:27:11;;;;;;;0.45;0.45;;;;;;;;;;1871781;76;26822;-47
2022/02/21 02:29:39;;;;;;;0.30;0.30;;;;;;;;;;1884241;76;26339;-47
2022/02/21 02:32:06;;;;;;;0.30;0.30;;;;;;;;;;1887473;75;26336;-48
2022/02/21 02:34:34;;;;;;;0.47;0.47;;;;;;;;;;1872045;74;26256;-47
2022/02/21 02:37:02;;;;;;;0.40;0.30;;;;;;;;;;1878731;76;26280;-46
2022/02/21 02:39:29;;;;;;;1.27;0.40;;;;;;;;;;1883641;76;26276;-45
2022/02/21 02:41:56;;;;;;;0.35;0.35;;;;;;;;;;1880206;76;26283;-48
2022/02/21 02:44:24;;;;;;;0.37;0.35;;;;;;;;;;1889178;76;26241;-47
2022/02/21 02:46:51;;;;;;;0.40;0.40;;;;;;;;;;1888244;76;26374;-48
2022/02/21 02:49:19;;;;;;;0.30;0.30;;;;;;;;;;1887270;76;26314;-45
2022/02/21 02:51:46;;;;;;;0.30;0.30;;;;;;;;;;1888643;74;26249;-47
2022/02/21 02:54:14;;;;;;;0.30;0.28;;;;;;;;;;1889143;76;26248;-47
2022/02/21 02:56:42;;;;;;;0.40;0.40;;;;;;;;;;1888614;75;26348;-47
2022/02/21 02:59:09;;;;;;;1.40;0.40;;;;;;;;;;1889145;76;26361;-46
2022/02/21 03:01:39;;;;;;;0.30;0.30;;;;;;;;;;1889398;76;26256;-47
2022/02/21 03:04:06;;;;;;;0.30;0.30;;;;;;;;;;1886120;76;26292;-47
2022/02/21 03:06:34;;;;;;;0.30;0.30;;;;;;;;;;1872212;76;26288;-49
2022/02/21 03:09:03;;;;;;;0.30;0.30;;;;;;;;;;1881608;76;26391;-49
2022/02/21 03:11:30;;;;;;;0.30;0.30;;;;;;;;;;1879610;76;26749;-48
2022/02/21 03:14:01;;;;;;;0.60;0.30;;;;;;;;;;1876429;75;26198;-47
2022/02/21 03:16:27;;;;;;;0.30;0.30;;;;;;;;;;1873982;76;26773;-46
2022/02/21 03:18:55;;;;;;;0.30;0.30;;;;;;;;;;1880143;76;26806;-46
2022/02/21 03:21:22;;;;;;;0.33;0.33;;;;;;;;;;1877114;76;26363;-46
2022/02/21 03:23:50;;;;;;;0.23;0.23;;;;;;;;;;1870131;76;26371;-45
2022/02/21 03:26:17;;;;;;;0.45;0.45;;;;;;;;;;1870822;76;26245;-45
2022/02/21 03:28:44;;;;;;;0.30;0.30;;;;;;;;;;1864422;76;26673;-50
2022/02/21 03:31:12;;;;;;;0.50;0.40;;;;;;;;;;1879501;76;26257;-45
2022/02/21 03:33:40;;;;;;;0.53;0.40;;;;;;;;;;1883868;75;26318;-46
2022/02/21 03:36:07;;;;;;;0.30;0.30;;;;;;;;;;1888522;75;26253;-47
2022/02/21 03:38:34;;;;;;;2.70;0.40;;;;;;;;;;1878704;76;26284;-49
2022/02/21 03:41:02;;;;;;;0.53;0.53;;;;;;;;;;1870656;76;26394;-46
2022/02/21 03:43:30;;;;;;;0.40;0.20;;;;;;;;;;1876961;76;26277;-48
2022/02/21 03:45:57;;;;;;;0.30;0.30;;;;;;;;;;1880319;76;26268;-46
2022/02/21 03:48:24;;;;;;;0.20;0.20;;;;;;;;;;1877808;76;26343;-51
2022/02/21 03:50:52;;;;;;;0.35;0.35;;;;;;;;;;1872641;76;26292;-47
2022/02/21 03:53:19;;;;;;;0.50;0.50;;;;;;;;;;1863024;76;26202;-47
2022/02/21 03:55:46;;;;;;;0.40;0.40;;;;;;;;;;1864767;76;26331;-48
2022/02/21 03:58:14;;;;;;;0.40;0.40;;;;;;;;;;1865575;76;26790;-45
2022/02/21 04:00:41;;;;;;;0.53;0.40;;;;;;;;;;1877135;76;26325;-45
2022/02/21 04:03:08;;;;;;;0.30;0.25;;;;;;;;;;1879390;76;26253;-45
2022/02/21 04:05:35;;;;;;;0.40;0.40;;;;;;;;;;1864351;76;26342;-49
2022/02/21 04:08:03;;;;;;;0.33;0.33;;;;;;;;;;1878471;76;26813;-46
2022/02/21 04:10:30;;;;;;;0.40;0.40;;;;;;;;;;1869422;76;26299;-46
2022/02/21 04:12:57;;;;;;;0.40;0.40;;;;;;;;;;1889319;74;26326;-49
2022/02/21 04:15:25;;;;;;;0.40;0.40;;;;;;;;;;1869634;76;26320;-47
2022/02/21 04:17:53;;;;;;;0.75;0.60;;;;;;;;;;1887026;76;26276;-47
2022/02/21 04:20:22;;;;;;;0.40;0.40;;;;;;;;;;1889238;76;26217;-47
2022/02/21 04:22:49;;;;;;;0.30;0.30;;;;;;;;;;1883495;76;26281;-48
2022/02/21 04:25:17;;;;;;;1.40;0.40;;;;;;;;;;1888123;76;26745;-46
2022/02/21 04:27:45;;;;;;;1.70;0.30;;;;;;;;;;1884904;74;26358;-50
2022/02/21 04:30:14;;;;;;;0.40;0.40;;;;;;;;;;1880807;75;26276;-44
2022/02/21 04:32:43;;;;;;;0.40;0.40;;;;;;;;;;1887747;76;26716;-47
2022/02/21 04:35:11;;;;;;;0.45;0.30;;;;;;;;;;1882921;74;26689;-45
2022/02/21 04:37:39;;;;;;;2.00;0.60;;;;;;;;;;1887212;74;26256;-45
2022/02/21 04:40:07;;;;;;;0.50;0.50;;;;;;;;;;1888913;74;26748;-44
2022/02/21 04:42:35;;;;;;;0.30;0.30;;;;;;;;;;1907039;74;26780;-45
2022/02/21 04:45:03;;;;;;;0.40;0.40;;;;;;;;;;1877720;76;26265;-45
2022/02/21 04:47:31;;;;;;;0.45;0.45;;;;;;;;;;1881581;76;26269;-43
2022/02/21 04:49:58;;;;;;;0.98;0.60;;;;;;;;;;1889075;76;26272;-46
2022/02/21 04:52:26;;;;;;;3.75;0.45;;;;;;;;;;1892847;74;26767;-44
2022/02/21 04:54:53;;;;;;;0.23;0.23;;;;;;;;;;1884201;76;26621;-45
2022/02/21 04:57:20;;;;;;;0.30;0.30;;;;;;;;;;1888389;76;26271;-43
2022/02/21 04:59:47;;;;;;;0.40;0.40;;;;;;;;;;1889167;76;26269;-44
2022/02/21 05:02:15;;;;;;;0.25;0.25;;;;;;;;;;1875914;76;26304;-42
2022/02/21 05:04:42;;;;;;;0.55;0.33;;;;;;;;;;1886147;75;26346;-44
2022/02/21 05:07:09;;;;;;;0.30;0.30;;;;;;;;;;1886648;75;26717;-44
2022/02/21 05:09:36;;;;;;;0.33;0.33;;;;;;;;;;1889031;76;26924;-43
2022/02/21 05:12:04;;;;;;;0.53;0.37;;;;;;;;;;1882893;76;26810;-43
2022/02/21 05:14:32;;;;;;;0.20;0.20;;;;;;;;;;1866091;76;26355;-45
2022/02/21 05:16:59;;;;;;;0.62;0.30;;;;;;;;;;1879144;76;26205;-43
2022/02/21 05:19:27;;;;;;;1.22;0.50;;;;;;;;;;1875455;76;26709;-46
2022/02/21 05:21:55;;;;;;;1.60;0.57;;;;;;;;;;1870135;76;26265;-43
2022/02/21 05:24:22;;;;;;;0.78;0.60;;;;;;;;;;1878020;76;26301;-41
2022/02/21 05:26:50;;;;;;;2.00;0.50;;;;;;;;;;1879831;76;26206;-42
2022/02/21 05:29:17;;;;;;;1.27;0.50;;;;;;;;;;1879305;76;26327;-43
2022/02/21 05:31:46;;;;;;;2.30;0.70;;;;;;;;;;1878606;76;26258;-42
2022/02/21 05:34:14;;;;;;;4.37;0.80;;;;;;;;;;1867998;75;26272;-42
2022/02/21 05:36:41;;;;;;;2.27;0.70;;;;;;;;;;1858944;76;26315;-42
2022/02/21 05:39:09;;;;;;;4.35;0.90;;;;;;;;;;1876523;76;26354;-43
2022/02/21 05:41:36;;;;;;;2.70;0.80;;;;;;;;;;1874908;76;26909;-44
2022/02/21 05:44:04;;;;;;;4.87;0.90;;;;;;;;;;1878551;76;26288;-42
2022/02/21 05:46:32;;;;;;;5.22;1.00;;;;;;;;;;1879485;76;26912;-43
2022/02/21 05:48:59;;;;;;;4.15;1.07;;;;;;;;;;1872003;76;26785;-44
2022/02/21 05:51:26;;;;;;;5.00;1.30;;;;;;;;;;1879814;75;26374;-44
2022/02/21 05:53:53;;;;;;;4.42;0.80;;;;;;;;;;1879046;76;26206;-46
2022/02/21 05:56:21;;;;;;;6.35;0.88;;;;;;;;;;1875856;76;26350;-42
2022/02/21 05:58:48;;;;;;;10.03;1.55;;;;;;;;;;1870956;76;26372;-43
2022/02/21 06:01:15;;;;;;;3.72;1.00;;;;;;;;;;1879627;76;26279;-45
2022/02/21 06:03:42;;;;;;;3.65;1.30;;;;;;;;;;1865624;76;38563;-45
2022/02/21 06:06:10;;;;;;;2.95;0.72;;;;;;;;;;1878354;75;26308;-48
2022/02/21 06:08:37;;;;;;;3.20;0.80;;;;;;;;;;1878777;76;26273;-50
2022/02/21 06:11:05;;;;;;;7.35;0.95;;;;;;;;;;1875217;76;26296;-47
2022/02/21 06:13:32;;;;;;;5.45;0.78;;;;;;;;;;1877076;76;26225;-46
2022/02/21 06:16:00;;;;;;;5.25;0.80;;;;;;;;;;1874606;76;26272;-50
2022/02/21 06:18:28;;;;;;;16.00;0.82;;;;;;;;;;1879501;76;26693;-49
2022/02/21 06:20:55;;;;;;;6.42;0.70;;;;;;;;;;1879497;76;26246;-48
2022/02/21 06:23:22;;;;;;;7.83;0.60;;;;;;;;;;1872189;76;26315;-45
2022/02/21 06:25:50;;;;;;;1.90;0.60;;;;;;;;;;1879812;76;26194;-46
2022/02/21 06:28:17;;;;;;;3.27;0.68;;;;;;;;;;1879110;76;26327;-46
2022/02/21 06:30:44;;;;;;;2.95;0.75;;;;;;;;;;1877959;76;26660;-46
2022/02/21 06:33:11;;;;;;;1.30;0.60;;;;;;;;;;1879113;76;26281;-49
2022/02/21 06:35:39;;;;;;;3.70;0.60;;;;;;;;;;1879746;76;26197;-45
2022/02/21 06:38:06;;;;;;;1.65;0.50;;;;;;;;;;1860182;76;26288;-44
2022/02/21 06:40:33;;;;;;;2.00;0.50;;;;;;;;;;1872705;76;26390;-42
2022/02/21 06:43:01;;;;;;;2.80;0.60;;;;;;;;;;1863341;76;26258;-45
2022/02/21 06:45:29;;;;;;;2.95;0.53;;;;;;;;;;1878320;76;26288;-42
2022/02/21 06:47:56;;;;;;;1.35;0.70;;;;;;;;;;1871366;76;26276;-42
2022/02/21 06:50:24;;;;;;;0.90;0.47;;;;;;;;;;1879589;76;26331;-44
2022/02/21 06:52:52;;;;;;;3.60;0.50;;;;;;;;;;1879994;75;26296;-44
2022/02/21 06:55:19;;;;;;;5.28;0.50;;;;;;;;;;1880164;76;26304;-42
2022/02/21 06:57:48;;;;;;;2.55;0.40;;;;;;;;;;1879687;76;26277;-44
2022/02/21 07:00:16;;;;;;;1.35;0.30;;;;;;;;;;1872973;76;26394;-44
2022/02/21 07:02:44;;;;;;;2.90;0.50;;;;;;;;;;1878332;76;27205;-47
2022/02/21 07:05:12;;;;;;;1.30;0.35;;;;;;;;;;1870980;76;26357;-42
2022/02/21 07:07:39;;;;;;;0.98;0.40;;;;;;;;;;1871693;76;26305;-47
2022/02/21 07:10:07;;;;;;;0.28;0.28;;;;;;;;;;1866385;76;26258;-43
2022/02/21 07:12:35;;;;;;;0.35;0.30;;;;;;;;;;1877580;76;26826;-43
2022/02/21 07:15:02;;;;;;;1.17;0.20;;;;;;;;;;1877808;76;26318;-44
2022/02/21 07:17:29;;;;;;;1.05;0.42;;;;;;;;;;1876434;76;26281;-43
2022/02/21 07:19:56;;;;;;;0.30;0.20;;;;;;;;;;1878527;75;26273;-44
2022/02/21 07:22:24;;;;;;;0.40;0.30;;;;;;;;;;1879750;75;26339;-45
2022/02/21 07:24:51;;;;;;;1.57;0.50;;;;;;;;;;1879211;76;26327;-46
2022/02/21 07:27:19;;;;;;;0.90;0.30;;;;;;;;;;1879871;76;26276;-41
2022/02/21 07:29:46;;;;;;;0.95;0.37;;;;;;;;;;1865489;76;26735;-46
2022/02/21 07:32:13;;;;;;;0.13;0.13;;;;;;;;;;1880109;76;26346;-42
2022/02/21 07:34:40;;;;;;;0.30;0.30;;;;;;;;;;1874740;76;26273;-44
2022/02/21 07:37:08;;;;;;;0.70;0.28;;;;;;;;;;1868547;76;26311;-45
2022/02/21 07:39:36;;;;;;;0.20;0.20;;;;;;;;;;1879554;76;26305;-44
2022/02/21 07:42:03;;;;;;;0.15;0.10;;;;;;;;;;1880000;76;26221;-44
2022/02/21 07:44:31;;;;;;;0.10;0.10;;;;;;;;;;1880035;76;27429;-42
2022/02/21 07:46:59;;;;;;;0.20;0.20;;;;;;;;;;1862685;75;25988;-43
2022/02/21 07:49:26;;;;;;;0.93;0.40;;;;;;;;;;1878658;76;26961;-45
2022/02/21 07:51:53;;;;;;;1.72;0.20;;;;;;;;;;1878516;76;26807;-42
2022/02/21 07:54:20;;;;;;;0.20;0.20;;;;;;;;;;1879729;76;26338;-45
2022/02/21 07:56:48;;;;;;;0.10;0.10;;;;;;;;;;1874280;75;26581;-46
2022/02/21 07:59:17;;;;;;;0.10;0.10;;;;;;;;;;1848749;76;26273;-46
2022/02/21 08:01:44;;;;;;;0.57;0.20;;;;;;;;;;1871075;76;26217;-42
2022/02/21 08:04:11;;;;;;;0.20;0.20;;;;;;;;;;1864150;76;26262;-42
2022/02/21 08:06:39;;;;;;;0.33;0.28;;;;;;;;;;1855134;76;26274;-43
2022/02/21 08:09:06;;;;;;;0.20;0.20;;;;;;;;;;1871031;76;26210;-45
2022/02/21 08:11:34;;;;;;;0.20;0.20;;;;;;;;;;1876520;76;26268;-44
2022/02/21 08:14:01;;;;;;;0.10;0.10;;;;;;;;;;1874855;76;26304;-43
2022/02/21 08:16:29;;;;;;;0.10;0.10;;;;;;;;;;1879908;76;26253;-42
2022/02/21 08:18:57;;;;;;;0.10;0.10;;;;;;;;;;1879795;76;26289;-42
2022/02/21 08:21:24;;;;;;;0.10;0.10;;;;;;;;;;1879297;76;26730;-44
2022/02/21 08:23:51;;;;;;;0.20;0.20;;;;;;;;;;1879582;76;26705;-46
2022/02/21 08:26:18;;;;;;;0.10;0.10;;;;;;;;;;1879107;76;26272;-42
2022/02/21 08:28:46;;;;;;;0.20;0.20;;;;;;;;;;1879766;76;26230;-46
2022/02/21 08:31:13;;;;;;;0.20;0.20;;;;;;;;;;1879999;76;26202;-46
2022/02/21 08:33:40;;;;;;;0.10;0.10;;;;;;;;;;1860157;76;26822;-43
2022/02/21 08:36:08;;;;;;;0.10;0.10;;;;;;;;;;1879260;76;27488;-45
2022/02/21 08:38:35;;;;;;;0.20;0.20;;;;;;;;;;1879600;76;26340;-45
2022/02/21 08:41:02;;;;;;;0.10;0.10;;;;;;;;;;1889841;75;26672;-44
2022/02/21 08:43:29;;;;;;;0.03;0.03;;;;;;;;;;1878751;76;26740;-43
2022/02/21 08:45:57;;;;;;;0.10;0.10;;;;;;;;;;1880177;76;26694;-43
2022/02/21 08:48:24;;;;;;;0.00;0.00;;;;;;;;;;1879133;76;26273;-44
2022/02/21 08:50:51;;;;;;;0.17;0.17;;;;;;;;;;1879634;76;26260;-45
2022/02/21 08:53:19;;;;;;;0.10;0.10;;;;;;;;;;1869135;75;27543;-44
2022/02/21 08:55:46;;;;;;;0.10;0.10;;;;;;;;;;1871535;75;27453;-42
2022/02/21 08:58:14;;;;;;;0.10;0.10;;;;;;;;;;1875871;76;26264;-41
2022/02/21 09:00:43;;;;;;;0.10;0.10;;;;;;;;;;1879069;75;26266;-41
2022/02/21 09:03:10;;;;;;;0.25;0.17;;;;;;;;;;1879707;76;26416;-45
2022/02/21 09:05:37;;;;;;;0.10;0.10;;;;;;;;;;1883616;75;26258;-42
2022/02/21 09:08:05;;;;;;;0.20;0.10;;;;;;;;;;1867911;76;26256;-45
2022/02/21 09:10:33;;;;;;;3.00;0.35;;;;;;;;;;1868442;76;25797;-42
2022/02/21 09:13:01;;;;;;;0.10;0.10;;;;;;;;;;1880220;76;26347;-44
2022/02/21 09:15:28;;;;;;;0.05;0.05;;;;;;;;;;1880046;76;26714;-41
2022/02/21 09:17:57;;;;;;;0.10;0.10;;;;;;;;;;1876323;76;26747;-44
2022/02/21 09:20:24;;;;;;;0.13;0.13;;;;;;;;;;1879918;76;26812;-44
2022/02/21 09:22:51;;;;;;;0.10;0.10;;;;;;;;;;1873669;75;26282;-42
2022/02/21 09:25:19;;;;;;;0.00;0.00;;;;;;;;;;1879237;76;26693;-42
2022/02/21 09:27:46;;;;;;;0.00;0.00;;;;;;;;;;1880064;76;27339;-41
2022/02/21 09:30:14;;;;;;;0.10;0.10;;;;;;;;;;1879782;76;26315;-46
2022/02/21 09:32:41;;;;;;;0.10;0.10;;;;;;;;;;1880026;76;26307;-43
2022/02/21 09:35:08;;;;;;;0.10;0.10;;;;;;;;;;1879225;76;26323;-41
2022/02/21 09:37:36;;;;;;;0.10;0.10;;;;;;;;;;1871377;75;26784;-42
2022/02/21 09:40:08;;;;;;;0.08;0.08;;;;;;;;;;1865674;75;26305;-41
2022/02/21 09:42:37;;;;;;;0.15;0.15;;;;;;;;;;1879948;75;26273;-42
2022/02/21 09:45:06;;;;;;;0.20;0.20;;;;;;;;;;1879932;76;26245;-41
2022/02/21 09:47:34;;;;;;;0.00;0.00;;;;;;;;;;1877759;75;26338;-44
2022/02/21 09:50:01;;;;;;;0.10;0.10;;;;;;;;;;1878265;76;27263;-42
2022/02/21 09:52:29;;;;;;;0.10;0.10;;;;;;;;;;1873842;76;26260;-44
2022/02/21 09:54:59;;;;;;;0.08;0.08;;;;;;;;;;1879334;76;27754;-41
2022/02/21 09:57:26;;;;;;;0.00;0.00;;;;;;;;;;1879957;76;26725;-44
2022/02/21 09:59:54;;;;;;;0.10;0.10;;;;;;;;;;1867813;76;26320;-41
2022/02/21 10:02:29;;;;;;;0.20;0.20;;;;;;;;;;1879889;76;26332;-44
2022/02/21 10:05:10;;;;;;;0.10;0.10;;;;;;;;;;1871054;76;26261;-42
2022/02/21 10:07:38;;;;;;;0.10;0.10;;;;;;;;;;1856073;76;26269;-44
2022/02/21 10:10:06;;;;;;;0.10;0.10;;;;;;;;;;1860575;76;26201;-42
2022/02/21 10:12:35;;;;;;;0.10;0.10;;;;;;;;;;1879697;76;26551;-43
2022/02/21 10:15:21;;;;;;;0.10;0.10;;;;;;;;;;1872605;76;26369;-44
2022/02/21 10:17:49;;;;;;;0.00;0.00;;;;;;;;;;1879812;76;26280;-42
2022/02/21 10:20:18;;;;;;;0.28;0.28;;;;;;;;;;1889223;76;26268;-42
2022/02/21 10:23:01;;;;;;;0.10;0.10;;;;;;;;;;1887701;76;26283;-43
2022/02/21 10:25:28;;;;;;;0.10;0.10;;;;;;;;;;1885859;76;26774;-43
2022/02/21 10:27:57;;;;;;;0.10;0.10;;;;;;;;;;1889025;76;26757;-44
2022/02/21 10:30:25;;;;;;;0.10;0.10;;;;;;;;;;1889157;76;26720;-42
2022/02/21 10:32:52;;;;;;;0.00;0.00;;;;;;;;;;1889148;74;26237;-42
2022/02/21 10:35:21;;;;;;;0.10;0.10;;;;;;;;;;1889396;76;26728;-43
2022/02/21 10:37:53;;;;;;;0.10;0.10;;;;;;;;;;1882022;76;26720;-45
2022/02/21 10:40:22;;;;;;;0.10;0.10;;;;;;;;;;1883676;76;26280;-44
2022/02/21 10:43:02;;;;;;;0.20;0.20;;;;;;;;;;1887312;76;26252;-46
2022/02/21 10:45:31;;;;;;;0.25;0.25;;;;;;;;;;1887879;76;26316;-44
2022/02/21 10:48:12;;;;;;;0.08;0.08;;;;;;;;;;1888759;74;26273;-44
2022/02/21 10:50:40;;;;;;;0.13;0.13;;;;;;;;;;1889224;76;26252;-43
2022/02/21 10:53:11;;;;;;;0.10;0.10;;;;;;;;;;1889254;76;26720;-43
2022/02/21 10:55:42;;;;;;;0.15;0.15;;;;;;;;;;1888863;76;26297;-43
2022/02/21 10:58:20;;;;;;;0.10;0.10;;;;;;;;;;1888713;76;26225;-43
2022/02/21 11:00:50;;;;;;;0.10;0.10;;;;;;;;;;1876544;76;26273;-45
2022/02/21 11:03:19;;;;;;;0.20;0.20;;;;;;;;;;1886068;76;26295;-45
2022/02/21 11:05:47;;;;;;;0.20;0.20;;;;;;;;;;1888188;76;26723;-43
2022/02/21 11:08:16;;;;;;;0.10;0.10;;;;;;;;;;1889108;76;26334;-43
2022/02/21 11:10:44;;;;;;;0.10;0.10;;;;;;;;;;1886551;75;26260;-44
2022/02/21 11:13:14;;;;;;;0.10;0.10;;;;;;;;;;1885876;76;26206;-45
2022/02/21 11:15:42;;;;;;;0.20;0.20;;;;;;;;;;1887242;76;26402;-45
2022/02/21 11:18:09;;;;;;;0.00;0.00;;;;;;;;;;1889056;76;26252;-43
2022/02/21 11:20:38;;;;;;;0.10;0.10;;;;;;;;;;1889216;76;26261;-43
2022/02/21 11:23:06;;;;;;;0.10;0.10;;;;;;;;;;1886078;76;26695;-42
2022/02/21 11:25:44;;;;;;;0.10;0.10;;;;;;;;;;1889057;76;26343;-45
2022/02/21 11:28:25;;;;;;;0.20;0.20;;;;;;;;;;1888821;76;26771;-43
2022/02/21 11:30:54;;;;;;;0.05;0.05;;;;;;;;;;1889200;74;26281;-45
2022/02/21 11:33:22;;;;;;;0.10;0.10;;;;;;;;;;1884507;76;26307;-43
2022/02/21 11:35:59;;;;;;;0.30;0.30;;;;;;;;;;1874524;76;26265;-43
2022/02/21 11:38:29;;;;;;;0.17;0.17;;;;;;;;;;1882191;76;26326;-44
2022/02/21 11:41:01;;;;;;;0.20;0.20;;;;;;;;;;1874956;76;26425;-42
2022/02/21 11:43:30;;;;;;;0.10;0.10;;;;;;;;;;1889496;76;26263;-42
2022/02/21 11:45:58;;;;;;;0.17;0.17;;;;;;;;;;1888107;76;26343;-45
2022/02/21 11:48:25;;;;;;;0.13;0.13;;;;;;;;;;1875406;74;26353;-44
2022/02/21 11:50:59;;;;;;;0.10;0.10;;;;;;;;;;1885818;76;26790;-42
2022/02/21 11:53:29;;;;;;;0.10;0.10;;;;;;;;;;1889202;76;26280;-44
2022/02/21 11:55:57;;;;;;;0.10;0.10;;;;;;;;;;1888546;75;26319;-46
2022/02/21 11:58:27;;;;;;;0.13;0.13;;;;;;;;;;1888984;76;26271;-46
2022/02/21 12:00:55;;;;;;;0.10;0.10;;;;;;;;;;1889194;76;26308;-45
2022/02/21 12:03:25;;;;;;;0.20;0.20;;;;;;;;;;1889237;76;26748;-46
2022/02/21 12:05:59;;;;;;;0.15;0.15;;;;;;;;;;1889812;75;26329;-44
2022/02/21 12:08:31;;;;;;;0.10;0.10;;;;;;;;;;1886636;76;26740;-44
2022/02/21 12:11:03;;;;;;;0.10;0.10;;;;;;;;;;1871089;76;26281;-45
2022/02/21 12:13:31;;;;;;;0.20;0.20;;;;;;;;;;1889191;76;26205;-42
2022/02/21 12:16:09;;;;;;;0.20;0.20;;;;;;;;;;1889203;76;26295;-44
2022/02/21 12:18:40;;;;;;;0.10;0.10;;;;;;;;;;1889037;76;26267;-44
2022/02/21 12:21:09;;;;;;;0.10;0.10;;;;;;;;;;1888787;75;26272;-44
2022/02/21 12:23:39;;;;;;;0.20;0.20;;;;;;;;;;1887362;76;26292;-43
2022/02/21 12:26:08;;;;;;;0.10;0.10;;;;;;;;;;1889359;76;26803;-44
2022/02/21 12:28:36;;;;;;;0.10;0.10;;;;;;;;;;1888967;76;26728;-44
2022/02/21 12:31:03;;;;;;;0.10;0.10;;;;;;;;;;1889331;76;26260;-44
2022/02/21 12:33:31;;;;;;;0.00;0.00;;;;;;;;;;1889288;76;26330;-42
2022/02/21 12:36:00;;;;;;;0.20;0.20;;;;;;;;;;1889525;76;26331;-44
2022/02/21 12:38:28;;;;;;;0.10;0.10;;;;;;;;;;1889017;76;26237;-44
2022/02/21 12:41:07;;;;;;;0.20;0.20;;;;;;;;;;1880817;75;26276;-43
2022/02/21 12:43:54;;;;;;;0.10;0.10;;;;;;;;;;1888852;76;26314;-46
2022/02/21 12:46:26;;;;;;;0.30;0.30;;;;;;;;;;1888876;76;26311;-44
2022/02/21 12:48:53;;;;;;;0.20;0.20;;;;;;;;;;1884783;76;26730;-45
2022/02/21 12:51:22;;;;;;;0.17;0.17;;;;;;;;;;1872262;76;26197;-45
2022/02/21 12:53:51;;;;;;;0.20;0.20;;;;;;;;;;1889256;76;26264;-44
2022/02/21 12:56:19;;;;;;;0.25;0.25;;;;;;;;;;1887028;76;26610;-45
2022/02/21 12:58:49;;;;;;;0.00;0.00;;;;;;;;;;1878365;76;26281;-43
2022/02/21 13:01:18;;;;;;;0.20;0.20;;;;;;;;;;1889232;76;26300;-43
2022/02/21 13:03:56;;;;;;;0.20;0.20;;;;;;;;;;1889546;76;26304;-45
2022/02/21 13:06:25;;;;;;;0.20;0.20;;;;;;;;;;1869903;76;26751;-43
2022/02/21 13:08:52;;;;;;;0.20;0.20;;;;;;;;;;1884860;75;26290;-47
2022/02/21 13:11:26;;;;;;;0.20;0.20;;;;;;;;;;1876129;76;26346;-47
2022/02/21 13:13:55;;;;;;;0.20;0.20;;;;;;;;;;1868841;76;26771;-44
2022/02/21 13:16:27;;;;;;;0.13;0.13;;;;;;;;;;1888122;76;26692;-43
2022/02/21 13:19:04;;;;;;;0.20;0.20;;;;;;;;;;1888328;76;26278;-43
2022/02/21 13:21:39;;;;;;;0.20;0.20;;;;;;;;;;1870274;75;26346;-42
2022/02/21 13:24:08;;;;;;;0.13;0.13;;;;;;;;;;1888725;76;26291;-44
2022/02/21 13:26:42;;;;;;;0.20;0.20;;;;;;;;;;1889184;76;26281;-46
2022/02/21 13:29:23;;;;;;;0.20;0.20;;;;;;;;;;1889411;76;26689;-45
2022/02/21 13:31:50;;;;;;;0.10;0.10;;;;;;;;;;1879742;76;26357;-42
2022/02/21 13:34:18;;;;;;;0.10;0.10;;;;;;;;;;1872831;75;26798;-44
2022/02/21 13:36:45;;;;;;;0.10;0.10;;;;;;;;;;1882910;76;26707;-43
2022/02/21 13:39:22;;;;;;;0.13;0.13;;;;;;;;;;1885926;76;26330;-44
2022/02/21 13:41:49;;;;;;;0.10;0.10;;;;;;;;;;1879155;76;26292;-45
2022/02/21 13:44:23;;;;;;;0.10;0.10;;;;;;;;;;1889636;76;26502;-45
2022/02/21 13:46:51;;;;;;;0.10;0.10;;;;;;;;;;1889258;76;26244;-45
2022/02/21 13:49:20;;;;;;;0.20;0.20;;;;;;;;;;1886861;74;26736;-42
2022/02/21 13:51:47;;;;;;;0.08;0.08;;;;;;;;;;1885980;76;26680;-43
2022/02/21 13:54:29;;;;;;;0.10;0.10;;;;;;;;;;1889221;76;26272;-42
2022/02/21 13:57:10;;;;;;;0.08;0.08;;;;;;;;;;1889117;76;26854;-47
2022/02/21 13:59:48;;;;;;;0.20;0.20;;;;;;;;;;1888156;76;26229;-44
2022/02/21 14:02:20;;;;;;;0.13;0.13;;;;;;;;;;1889317;76;26280;-44
2022/02/21 14:04:48;;;;;;;0.20;0.20;;;;;;;;;;1884744;75;26280;-45
2022/02/21 14:07:15;;;;;;;0.00;0.00;;;;;;;;;;1864785;75;26654;-44
2022/02/21 14:09:43;;;;;;;0.13;0.13;;;;;;;;;;1888441;76;26742;-45
2022/02/21 14:12:11;;;;;;;0.20;0.20;;;;;;;;;;1889078;76;26272;-48
2022/02/21 14:14:39;;;;;;;0.20;0.20;;;;;;;;;;1888752;76;26677;-45
2022/02/21 14:17:06;;;;;;;0.10;0.10;;;;;;;;;;1870260;76;27314;-43
2022/02/21 14:19:34;;;;;;;0.17;0.17;;;;;;;;;;1854437;76;26288;-43
2022/02/21 14:22:01;;;;;;;0.10;0.10;;;;;;;;;;1841669;76;26292;-46
2022/02/21 14:24:28;;;;;;;0.17;0.17;;;;;;;;;;1867300;76;26201;-45
2022/02/21 14:26:56;;;;;;;0.10;0.10;;;;;;;;;;1870944;76;26296;-45
2022/02/21 14:29:23;;;;;;;0.20;0.20;;;;;;;;;;1854493;76;26361;-43
2022/02/21 14:31:50;;;;;;;0.10;0.10;;;;;;;;;;1859823;76;26272;-43
2022/02/21 14:34:18;;;;;;;0.20;0.20;;;;;;;;;;1861716;76;26267;-43
2022/02/21 14:36:45;;;;;;;0.40;0.40;;;;;;;;;;1847521;76;26271;-43
2022/02/21 14:39:12;;;;;;;0.20;0.20;;;;;;;;;;1852707;76;26281;-46
2022/02/21 14:41:40;;;;;;;0.15;0.15;;;;;;;;;;1842341;76;26299;-42
2022/02/21 14:44:07;;;;;;;0.28;0.28;;;;;;;;;;1851596;76;27088;-44
2022/02/21 14:46:35;;;;;;;0.10;0.10;;;;;;;;;;1854656;76;26281;-45
2022/02/21 14:49:04;;;;;;;0.25;0.25;;;;;;;;;;1854459;76;26822;-41
2022/02/21 14:51:32;;;;;;;0.25;0.25;;;;;;;;;;1860597;76;26282;-46